createdAt,value
2023-11-18T00:00:35.873Z,53.20
2023-11-18T00:03:04.864Z,53.20
2023-11-18T00:05:33.551Z,53.30
2023-11-18T00:08:04.172Z,53.20
2023-11-18T00:10:32.902Z,53.20
2023-11-18T00:13:02.993Z,53.00
2023-11-18T00:15:31.573Z,53.10
2023-11-18T00:18:00.908Z,53.10
2023-11-18T00:20:32.019Z,53.10
2023-11-18T00:23:02.038Z,53.10
2023-11-18T00:25:32.821Z,53.10
2023-11-18T00:28:01.510Z,53.10
2023-11-18T00:30:30.229Z,53.10
2023-11-18T00:32:59.027Z,53.10
2023-11-18T00:35:28.099Z,53.00
2023-11-18T00:37:56.740Z,53.10
2023-11-18T00:40:25.409Z,53.10
2023-11-18T00:42:55.493Z,53.00
2023-11-18T00:45:24.222Z,53.00
2023-11-18T00:47:53.187Z,53.00
2023-11-18T00:50:21.906Z,53.00
2023-11-18T00:52:51.094Z,53.00
2023-11-18T00:55:20.270Z,52.90
2023-11-18T00:57:48.919Z,53.00
2023-11-18T01:00:22.851Z,53.00
2023-11-18T01:02:52.468Z,53.00
2023-11-18T01:05:21.558Z,53.10
2023-11-18T01:07:50.932Z,52.90
2023-11-18T01:10:20.308Z,52.90
2023-11-18T01:12:48.954Z,52.90
2023-11-18T01:15:19.377Z,52.90
2023-11-18T01:17:48.112Z,52.90
2023-11-18T01:20:22.321Z,52.90
2023-11-18T01:22:51.681Z,52.90
2023-11-18T01:25:20.376Z,52.80
2023-11-18T01:27:49.047Z,53.40
2023-11-18T01:30:20.170Z,52.80
2023-11-18T01:32:50.160Z,52.90
2023-11-18T01:35:19.079Z,52.90
2023-11-18T01:37:49.356Z,52.90
2023-11-18T01:40:19.285Z,52.90
2023-11-18T01:42:48.320Z,52.80
2023-11-18T01:45:17.918Z,52.70
2023-11-18T01:47:50.081Z,52.80
2023-11-18T01:50:19.793Z,52.80
2023-11-18T01:52:49.856Z,52.80
2023-11-18T01:55:18.739Z,52.80
2023-11-18T01:57:47.463Z,52.80
2023-11-18T02:00:19.104Z,52.80
2023-11-18T02:02:49.706Z,52.70
2023-11-18T02:05:19.461Z,52.70
2023-11-18T02:07:48.775Z,52.70
2023-11-18T02:10:18.810Z,52.80
2023-11-18T02:12:56.123Z,52.70
2023-11-18T02:15:27.648Z,52.80
2023-11-18T02:18:00.244Z,52.80
2023-11-18T02:20:30.662Z,52.80
2023-11-18T02:23:00.111Z,52.80
2023-11-18T02:25:30.047Z,52.70
2023-11-18T02:28:00.673Z,52.80
2023-11-18T02:30:32.089Z,52.80
2023-11-18T02:33:06.888Z,52.90
2023-11-18T02:35:40.306Z,52.80
2023-11-18T02:38:11.690Z,52.80
2023-11-18T02:40:44.375Z,52.80
2023-11-18T02:43:14.561Z,52.70
2023-11-18T02:45:44.462Z,52.70
2023-11-18T02:48:13.339Z,52.80
2023-11-18T02:50:44.050Z,52.60
2023-11-18T02:53:12.722Z,52.70
2023-11-18T02:55:42.328Z,52.80
2023-11-18T02:58:11.002Z,52.80
2023-11-18T03:00:41.055Z,52.60
2023-11-18T03:03:09.768Z,52.70
2023-11-18T03:05:38.648Z,52.70
2023-11-18T03:08:08.246Z,52.70
2023-11-18T03:10:37.247Z,52.70
2023-11-18T03:13:05.916Z,52.70
2023-11-18T03:15:34.582Z,52.60
2023-11-18T03:18:06.835Z,52.60
2023-11-18T03:20:36.204Z,52.60
2023-11-18T03:23:08.856Z,52.70
2023-11-18T03:25:39.127Z,52.70
2023-11-18T03:28:08.727Z,52.70
2023-11-18T03:30:38.218Z,52.60
2023-11-18T03:33:12.182Z,52.60
2023-11-18T03:35:41.075Z,52.60
2023-11-18T03:38:09.730Z,52.60
2023-11-18T03:40:38.409Z,52.70
2023-11-18T03:43:07.063Z,52.60
2023-11-18T03:45:35.701Z,52.60
2023-11-18T03:48:04.443Z,52.50
2023-11-18T03:50:34.623Z,52.50
2023-11-18T03:53:04.474Z,52.50
2023-11-18T03:55:33.178Z,52.60
2023-11-18T03:58:02.393Z,52.50
2023-11-18T04:00:32.618Z,52.50
2023-11-18T04:03:01.368Z,52.50
2023-11-18T04:05:30.246Z,52.50
2023-11-18T04:08:00.287Z,52.50
2023-11-18T04:10:29.579Z,52.50
2023-11-18T04:12:58.319Z,52.60
2023-11-18T04:15:28.155Z,52.50
2023-11-18T04:17:57.192Z,52.60
2023-11-18T04:20:25.804Z,52.50
2023-11-18T04:22:55.406Z,52.50
2023-11-18T04:25:26.457Z,52.50
2023-11-18T04:27:55.257Z,52.60
2023-11-18T04:30:23.880Z,52.60
2023-11-18T04:32:53.367Z,52.60
2023-11-18T04:35:23.573Z,52.60
2023-11-18T04:37:52.341Z,52.60
2023-11-18T04:40:21.093Z,52.60
2023-11-18T04:42:51.090Z,52.60
2023-11-18T04:45:19.717Z,52.50
2023-11-18T04:47:48.530Z,52.50
2023-11-18T04:50:17.374Z,52.40
2023-11-18T04:52:46.056Z,52.50
2023-11-18T04:55:15.275Z,52.60
2023-11-18T04:57:44.566Z,52.50
2023-11-18T05:00:18.645Z,52.40
2023-11-18T05:02:49.333Z,52.50
2023-11-18T05:05:18.982Z,52.50
2023-11-18T05:07:47.844Z,52.50
2023-11-18T05:10:16.641Z,52.40
2023-11-18T05:12:45.731Z,52.50
2023-11-18T05:15:15.710Z,52.60
2023-11-18T05:17:44.393Z,52.50
2023-11-18T05:20:14.152Z,52.50
2023-11-18T05:22:42.890Z,52.40
2023-11-18T05:25:11.871Z,52.30
2023-11-18T05:27:41.787Z,52.30
2023-11-18T05:30:11.692Z,52.30
2023-11-18T05:32:42.020Z,52.30
2023-11-18T05:35:12.725Z,52.30
2023-11-18T05:37:42.586Z,52.50
2023-11-18T05:40:16.733Z,52.40
2023-11-18T05:42:47.437Z,52.40
2023-11-18T05:45:28.731Z,52.50
2023-11-18T05:47:59.201Z,52.40
2023-11-18T05:50:27.918Z,52.30
2023-11-18T05:52:57.176Z,52.30
2023-11-18T05:55:25.939Z,52.40
2023-11-18T05:57:54.547Z,52.40
2023-11-18T06:00:30.778Z,52.50
2023-11-18T06:03:06.082Z,52.40
2023-11-18T06:05:36.271Z,52.40
2023-11-18T06:08:05.824Z,52.40
2023-11-18T06:10:35.410Z,52.40
2023-11-18T06:13:05.565Z,52.30
2023-11-18T06:15:36.911Z,52.40
2023-11-18T06:18:07.338Z,52.20
2023-11-18T06:20:37.346Z,51.20
2023-11-18T06:23:06.144Z,50.60
2023-11-18T06:25:36.440Z,50.10
2023-11-18T06:28:09.106Z,49.70
2023-11-18T06:30:37.835Z,49.40
2023-11-18T06:33:07.938Z,49.10
2023-11-18T06:35:36.574Z,48.80
2023-11-18T06:38:05.232Z,50.00
2023-11-18T06:40:34.004Z,51.20
2023-11-18T06:43:04.073Z,51.20
2023-11-18T06:45:33.264Z,50.80
2023-11-18T06:48:02.266Z,50.80
2023-11-18T06:50:32.962Z,51.00
2023-11-18T06:53:01.592Z,51.10
2023-11-18T06:55:30.979Z,51.20
2023-11-18T06:57:59.609Z,51.20
2023-11-18T07:00:29.310Z,51.60
2023-11-18T07:02:58.945Z,52.10
2023-11-18T07:05:27.732Z,52.50
2023-11-18T07:07:58.328Z,51.90
2023-11-18T07:10:28.734Z,52.60
2023-11-18T07:13:03.269Z,51.50
2023-11-18T07:15:31.928Z,51.90
2023-11-18T07:18:00.547Z,53.10
2023-11-18T07:20:29.203Z,53.30
2023-11-18T07:22:59.217Z,53.60
2023-11-18T07:25:28.407Z,53.40
2023-11-18T07:27:57.161Z,53.60
2023-11-18T07:30:26.603Z,53.50
2023-11-18T07:32:55.287Z,53.70
2023-11-18T07:35:24.325Z,53.60
2023-11-18T07:37:53.295Z,53.80
2023-11-18T07:40:26.225Z,53.80
2023-11-18T07:42:54.850Z,52.80
2023-11-18T07:45:24.691Z,53.30
2023-11-18T07:47:53.381Z,53.60
2023-11-18T07:50:22.482Z,53.70
2023-11-18T07:52:51.862Z,53.80
2023-11-18T07:55:20.622Z,53.90
2023-11-18T07:57:50.592Z,52.70
2023-11-18T08:00:19.331Z,52.00
2023-11-18T08:02:48.114Z,51.60
2023-11-18T08:05:17.109Z,51.90
2023-11-18T08:07:46.548Z,52.20
2023-11-18T08:10:20.096Z,50.40
2023-11-18T08:12:52.023Z,49.00
2023-11-18T08:15:21.001Z,49.70
2023-11-18T08:17:50.268Z,51.60
2023-11-18T08:20:18.042Z,52.50
2023-11-18T08:22:46.820Z,52.50
2023-11-18T08:25:16.283Z,52.30
2023-11-18T08:27:46.810Z,51.40
2023-11-18T08:30:19.061Z,51.90
2023-11-18T08:32:49.196Z,51.80
2023-11-18T08:35:18.316Z,50.60
2023-11-18T08:37:48.727Z,51.10
2023-11-18T08:40:19.188Z,50.90
2023-11-18T08:42:50.683Z,50.80
2023-11-18T08:45:23.120Z,50.10
2023-11-18T08:47:54.285Z,49.70
2023-11-18T08:50:25.244Z,49.70
2023-11-18T08:52:59.391Z,50.60
2023-11-18T08:55:42.094Z,50.30
2023-11-18T08:58:24.021Z,50.60
2023-11-18T09:00:55.958Z,50.80
2023-11-18T09:03:30.212Z,50.90
2023-11-18T09:05:59.324Z,51.00
2023-11-18T09:08:30.762Z,51.00
2023-11-18T09:10:59.713Z,51.20
2023-11-18T09:13:30.126Z,51.10
2023-11-18T09:16:01.770Z,51.20
2023-11-18T09:18:31.891Z,51.20
2023-11-18T09:21:02.458Z,51.20
2023-11-18T09:23:33.105Z,51.20
2023-11-18T09:26:02.182Z,51.30
2023-11-18T09:28:30.930Z,51.40
2023-11-18T09:31:03.735Z,51.30
2023-11-18T09:33:34.936Z,51.30
2023-11-18T09:36:05.365Z,51.50
2023-11-18T09:38:36.667Z,51.40
2023-11-18T09:41:08.816Z,51.30
2023-11-18T09:43:43.602Z,51.90
2023-11-18T09:46:15.313Z,51.30
2023-11-18T09:48:48.263Z,51.40
2023-11-18T09:51:22.193Z,51.30
2023-11-18T09:53:53.902Z,51.40
2023-11-18T09:56:39.648Z,51.50
2023-11-18T09:59:17.773Z,50.50
2023-11-18T10:01:54.874Z,50.20
2023-11-18T10:04:28.867Z,50.50
2023-11-18T10:06:58.452Z,51.10
2023-11-18T10:09:30.340Z,51.40
2023-11-18T10:12:06.477Z,51.40
2023-11-18T10:14:35.895Z,51.10
2023-11-18T10:17:09.655Z,51.00
2023-11-18T10:19:56.975Z,51.30
2023-11-18T10:22:28.868Z,51.30
2023-11-18T10:24:58.728Z,51.60
2023-11-18T10:27:28.781Z,51.60
2023-11-18T10:29:58.346Z,51.60
2023-11-18T10:32:29.804Z,51.60
2023-11-18T10:34:59.371Z,51.60
2023-11-18T10:37:32.157Z,51.60
2023-11-18T10:40:07.035Z,51.90
2023-11-18T10:42:35.746Z,51.90
2023-11-18T10:45:05.303Z,52.00
2023-11-18T10:47:37.210Z,52.00
2023-11-18T10:50:11.217Z,52.10
2023-11-18T10:52:42.560Z,51.90
2023-11-18T10:55:14.212Z,52.10
2023-11-18T10:57:44.307Z,52.10
2023-11-18T11:00:20.354Z,52.40
2023-11-18T11:02:59.694Z,52.30
2023-11-18T11:05:34.125Z,52.20
2023-11-18T11:08:06.391Z,51.80
2023-11-18T11:10:37.044Z,51.70
2023-11-18T11:13:09.514Z,51.70
2023-11-18T11:15:51.962Z,51.90
2023-11-18T11:18:36.099Z,51.90
2023-11-18T11:21:16.347Z,51.60
2023-11-18T11:23:55.420Z,51.60
2023-11-18T11:26:41.158Z,51.60
2023-11-18T11:29:21.351Z,51.80
2023-11-18T11:31:59.146Z,52.10
2023-11-18T11:34:32.698Z,52.40
2023-11-18T11:37:02.679Z,52.40
2023-11-18T11:39:33.766Z,52.50
2023-11-18T11:42:03.885Z,52.60
2023-11-18T11:44:33.115Z,52.50
2023-11-18T11:47:04.163Z,52.70
2023-11-18T11:49:44.744Z,52.60
2023-11-18T11:52:22.006Z,52.60
2023-11-18T11:54:59.703Z,52.50
2023-11-18T11:57:31.446Z,52.70
2023-11-18T12:00:16.405Z,52.70
2023-11-18T12:02:51.289Z,52.70
2023-11-18T12:05:26.494Z,52.70
2023-11-18T12:07:57.054Z,52.90
2023-11-18T12:10:32.209Z,53.00
2023-11-18T12:13:17.474Z,52.90
2023-11-18T12:15:58.528Z,53.20
2023-11-18T12:18:28.200Z,53.20
2023-11-18T12:21:03.014Z,53.40
2023-11-18T12:23:35.517Z,53.40
2023-11-18T12:26:26.245Z,53.50
2023-11-18T12:28:55.043Z,53.80
2023-11-18T12:31:40.978Z,54.10
2023-11-18T12:34:11.572Z,54.60
2023-11-18T12:37:12.020Z,54.30
2023-11-18T12:40:25.722Z,54.70
2023-11-18T12:43:06.900Z,55.10
2023-11-18T12:46:15.835Z,55.20
2023-11-18T12:48:48.031Z,55.30
2023-11-18T12:51:21.439Z,55.30
2023-11-18T12:53:54.533Z,55.20
2023-11-18T12:56:24.929Z,55.20
2023-11-18T12:58:55.135Z,55.10
2023-11-18T13:01:24.877Z,55.10
2023-11-18T13:03:54.668Z,55.10
2023-11-18T13:06:29.799Z,54.90
2023-11-18T13:09:00.348Z,54.90
2023-11-18T13:11:29.236Z,54.80
2023-11-18T13:13:58.014Z,54.70
2023-11-18T13:16:26.916Z,54.80
2023-11-18T13:18:57.478Z,55.10
2023-11-18T13:21:30.568Z,54.50
2023-11-18T13:24:00.756Z,54.20
2023-11-18T13:26:29.559Z,54.50
2023-11-18T13:28:58.277Z,54.30
2023-11-18T13:31:27.057Z,54.20
2023-11-18T13:33:55.854Z,54.30
2023-11-18T13:36:25.817Z,54.20
2023-11-18T13:38:54.587Z,54.10
2023-11-18T13:41:34.336Z,54.10
2023-11-18T13:44:04.120Z,54.20
2023-11-18T13:46:32.818Z,54.10
2023-11-18T13:49:01.652Z,53.90
2023-11-18T13:51:31.200Z,54.00
2023-11-18T13:54:00.696Z,53.90
2023-11-18T13:56:31.089Z,53.40
2023-11-18T13:59:01.775Z,53.40
2023-11-18T14:01:29.753Z,53.50
2023-11-18T14:04:03.147Z,53.60
2023-11-18T14:06:33.177Z,53.60
2023-11-18T14:09:01.910Z,53.70
2023-11-18T14:11:30.647Z,53.90
2023-11-18T14:13:59.739Z,54.00
2023-11-18T14:16:29.949Z,53.00
2023-11-18T14:18:58.606Z,53.10
2023-11-18T14:21:27.856Z,53.00
2023-11-18T14:24:01.168Z,53.10
2023-11-18T14:26:30.533Z,53.40
2023-11-18T14:29:00.172Z,53.50
2023-11-18T14:31:30.362Z,53.40
2023-11-18T14:34:00.243Z,52.90
2023-11-18T14:36:29.763Z,52.30
2023-11-18T14:38:59.575Z,52.20
2023-11-18T14:41:29.975Z,52.00
2023-11-18T14:44:02.127Z,52.00
2023-11-18T14:46:33.108Z,52.80
2023-11-18T14:49:02.021Z,53.50
2023-11-18T14:51:30.662Z,53.30
2023-11-18T14:54:02.457Z,53.30
2023-11-18T14:56:31.245Z,53.80
2023-11-18T14:59:01.176Z,53.80
2023-11-18T15:01:30.474Z,53.70
2023-11-18T15:04:00.751Z,53.80
2023-11-18T15:06:30.095Z,53.80
2023-11-18T15:08:58.854Z,53.70
2023-11-18T15:11:27.892Z,53.70
2023-11-18T15:13:57.765Z,53.50
2023-11-18T15:16:28.649Z,53.70
2023-11-18T15:19:04.873Z,53.60
2023-11-18T15:21:33.564Z,53.30
2023-11-18T15:24:04.815Z,53.40
2023-11-18T15:26:34.046Z,53.50
2023-11-18T15:29:04.189Z,53.40
2023-11-18T15:31:34.459Z,53.30
2023-11-18T15:34:04.485Z,53.40
2023-11-18T15:36:33.466Z,53.40
2023-11-18T15:39:04.499Z,53.40
2023-11-18T15:41:34.030Z,53.20
2023-11-18T15:44:04.497Z,53.30
2023-11-18T15:46:36.240Z,53.10
2023-11-18T15:49:07.170Z,52.80
2023-11-18T15:51:35.793Z,53.30
2023-11-18T15:54:04.559Z,53.10
2023-11-18T15:56:35.153Z,53.40
2023-11-18T15:59:03.889Z,53.10
2023-11-18T16:01:33.174Z,53.30
2023-11-18T16:04:01.846Z,53.20
2023-11-18T16:06:32.680Z,53.20
2023-11-18T16:09:01.809Z,53.20
2023-11-18T16:11:30.509Z,53.30
2023-11-18T16:14:00.444Z,52.80
2023-11-18T16:16:29.220Z,53.20
2023-11-18T16:18:59.690Z,53.00
2023-11-18T16:21:28.310Z,52.80
2023-11-18T16:23:58.297Z,52.90
2023-11-18T16:26:27.137Z,52.90
2023-11-18T16:28:56.482Z,52.60
2023-11-18T16:31:25.274Z,52.60
2023-11-18T16:33:54.589Z,52.10
2023-11-18T16:36:24.383Z,52.40
2023-11-18T16:38:53.008Z,52.70
2023-11-18T16:41:24.103Z,52.70
2023-11-18T16:43:53.567Z,52.50
2023-11-18T16:46:22.553Z,52.70
2023-11-18T16:48:51.156Z,52.70
2023-11-18T16:51:19.955Z,52.60
2023-11-18T16:53:48.589Z,52.80
2023-11-18T16:56:17.722Z,52.40
2023-11-18T16:58:47.986Z,52.70
2023-11-18T17:01:18.044Z,52.60
2023-11-18T17:03:46.770Z,52.40
2023-11-18T17:06:15.618Z,52.40
2023-11-18T17:08:44.859Z,52.20
2023-11-18T17:11:13.507Z,52.10
2023-11-18T17:13:43.163Z,52.30
2023-11-18T17:16:14.997Z,52.20
2023-11-18T17:18:44.198Z,52.10
2023-11-18T17:21:12.790Z,52.20
2023-11-18T17:23:44.903Z,52.00
2023-11-18T17:26:13.588Z,52.00
2023-11-18T17:28:42.540Z,52.00
2023-11-18T17:31:12.957Z,52.00
2023-11-18T17:33:41.610Z,52.00
2023-11-18T17:36:10.622Z,51.90
2023-11-18T17:38:39.254Z,51.90
2023-11-18T17:41:08.470Z,51.90
2023-11-18T17:43:37.104Z,51.90
2023-11-18T17:46:06.456Z,51.90
2023-11-18T17:48:37.288Z,51.80
2023-11-18T17:51:06.274Z,51.80
2023-11-18T17:53:34.895Z,51.80
2023-11-18T17:56:06.534Z,51.70
2023-11-18T17:58:35.272Z,51.80
2023-11-18T18:01:03.928Z,51.80
2023-11-18T18:03:32.777Z,51.80
2023-11-18T18:06:04.737Z,51.60
2023-11-18T18:08:40.519Z,51.80
2023-11-18T18:11:10.333Z,51.80
2023-11-18T18:13:39.037Z,51.60
2023-11-18T18:16:09.640Z,51.70
2023-11-18T18:18:38.806Z,51.70
2023-11-18T18:21:09.592Z,51.70
2023-11-18T18:23:38.371Z,51.60
2023-11-18T18:26:07.454Z,51.90
2023-11-18T18:28:36.138Z,51.60
2023-11-18T18:31:05.125Z,51.60
2023-11-18T18:33:33.725Z,51.60
2023-11-18T18:36:02.378Z,51.70
2023-11-18T18:38:32.423Z,51.50
2023-11-18T18:41:02.327Z,51.60
2023-11-18T18:43:31.446Z,51.50
2023-11-18T18:46:00.109Z,51.40
2023-11-18T18:48:28.769Z,51.10
2023-11-18T18:50:58.120Z,51.00
2023-11-18T18:53:27.443Z,50.80
2023-11-18T18:55:57.615Z,50.90
2023-11-18T18:58:26.249Z,50.80
2023-11-18T19:00:54.898Z,51.20
2023-11-18T19:03:23.624Z,51.50
2023-11-18T19:05:52.384Z,51.30
2023-11-18T19:08:21.285Z,50.90
2023-11-18T19:10:49.919Z,50.60
2023-11-18T19:13:22.211Z,50.40
2023-11-18T19:15:53.807Z,50.30
2023-11-18T19:18:22.592Z,50.40
2023-11-18T19:20:51.796Z,50.40
2023-11-18T19:23:20.623Z,50.40
2023-11-18T19:25:49.482Z,50.70
2023-11-18T19:28:20.264Z,50.50
2023-11-18T19:30:48.895Z,50.60
2023-11-18T19:33:17.584Z,50.80
2023-11-18T19:35:46.196Z,51.00
2023-11-18T19:38:14.868Z,51.10
2023-11-18T19:40:43.487Z,51.10
2023-11-18T19:43:12.108Z,51.10
2023-11-18T19:45:42.088Z,50.80
2023-11-18T19:48:10.725Z,50.70
2023-11-18T19:50:39.401Z,50.50
2023-11-18T19:53:08.298Z,50.40
2023-11-18T19:55:37.354Z,50.30
2023-11-18T19:58:06.088Z,50.20
2023-11-18T20:00:35.101Z,50.20
2023-11-18T20:03:05.560Z,50.10
2023-11-18T20:05:34.346Z,50.10
2023-11-18T20:08:03.713Z,50.10
2023-11-18T20:10:32.334Z,50.90
2023-11-18T20:13:01.060Z,50.40
2023-11-18T20:15:29.690Z,50.60
2023-11-18T20:17:58.748Z,50.60
2023-11-18T20:20:28.891Z,50.80
2023-11-18T20:22:57.578Z,50.80
2023-11-18T20:25:28.108Z,50.90
2023-11-18T20:27:56.764Z,50.90
2023-11-18T20:30:25.559Z,50.90
2023-11-18T20:32:56.608Z,50.90
2023-11-18T20:35:26.466Z,51.00
2023-11-18T20:37:56.575Z,50.70
2023-11-18T20:40:25.154Z,50.80
2023-11-18T20:42:53.793Z,51.00
2023-11-18T20:45:22.934Z,51.90
2023-11-18T20:47:52.164Z,52.50
2023-11-18T20:50:20.933Z,52.60
2023-11-18T20:52:50.505Z,52.80
2023-11-18T20:57:52.252Z,53.00
2023-11-18T21:00:21.387Z,52.80
2023-11-18T21:02:50.441Z,52.80
2023-11-18T21:05:21.502Z,52.90
2023-11-18T21:07:50.358Z,52.80
2023-11-18T21:10:20.498Z,52.80
2023-11-18T21:12:49.725Z,52.70
2023-11-18T21:15:18.426Z,52.80
2023-11-18T21:17:47.111Z,52.70
2023-11-18T21:20:15.999Z,52.70
2023-11-18T21:22:45.720Z,52.60
2023-11-18T21:25:16.860Z,52.70
2023-11-18T21:27:47.221Z,52.70
2023-11-18T21:30:16.030Z,52.60
2023-11-18T21:32:46.617Z,52.70
2023-11-18T21:35:19.163Z,52.70
2023-11-18T21:37:48.265Z,52.60
2023-11-18T21:40:18.082Z,52.60
2023-11-18T21:42:51.120Z,52.50
2023-11-18T21:45:20.113Z,52.60
2023-11-18T21:47:48.839Z,52.50
2023-11-18T21:50:17.673Z,52.80
2023-11-18T21:52:46.290Z,52.60
2023-11-18T21:55:15.372Z,52.60
2023-11-18T21:57:44.437Z,52.50
2023-11-18T22:00:17.904Z,52.60
2023-11-18T22:02:49.249Z,52.50
2023-11-18T22:05:19.118Z,52.50
2023-11-18T22:07:48.983Z,52.50
2023-11-18T22:10:18.857Z,52.60
2023-11-18T22:12:48.147Z,52.50
2023-11-18T22:15:18.918Z,52.60
2023-11-18T22:17:48.018Z,52.40
2023-11-18T22:20:18.201Z,52.40
2023-11-18T22:22:50.006Z,52.40
2023-11-18T22:25:19.462Z,52.30
2023-11-18T22:27:48.640Z,52.40
2023-11-18T22:30:20.906Z,52.30
2023-11-18T22:32:53.059Z,52.30
2023-11-18T22:35:22.127Z,52.20
2023-11-18T22:37:51.281Z,52.30
2023-11-18T22:40:22.720Z,52.30
2023-11-18T22:42:53.026Z,52.30
2023-11-18T22:45:23.909Z,52.30
2023-11-18T22:47:53.058Z,52.20
2023-11-18T22:50:24.237Z,52.20
2023-11-18T22:52:54.739Z,52.10
2023-11-18T22:55:24.172Z,52.20
2023-11-18T22:57:52.975Z,52.10
2023-11-18T23:00:36.010Z,52.10
2023-11-18T23:03:07.267Z,52.10
2023-11-18T23:05:40.010Z,52.10
2023-11-18T23:08:10.005Z,52.20
2023-11-18T23:10:39.667Z,52.20
2023-11-18T23:13:09.191Z,52.20
2023-11-18T23:15:40.268Z,52.10
2023-11-18T23:18:10.814Z,52.10
2023-11-18T23:20:40.051Z,52.20
2023-11-18T23:23:09.196Z,52.20
2023-11-18T23:25:38.017Z,52.10
2023-11-18T23:28:09.340Z,52.10
2023-11-18T23:30:39.969Z,52.10
2023-11-18T23:33:09.419Z,52.20
2023-11-18T23:35:41.422Z,52.10
2023-11-18T23:38:10.247Z,52.20
2023-11-18T23:40:42.035Z,52.20
2023-11-18T23:43:10.754Z,52.20
2023-11-18T23:45:42.320Z,52.20
2023-11-18T23:48:11.252Z,52.10
2023-11-18T23:50:39.998Z,52.10
2023-11-18T23:53:09.120Z,52.10
2023-11-18T23:55:37.853Z,52.20
2023-11-18T23:58:06.545Z,52.20
